Time;durP1;ratioP1;P1;durP2;ratioP2;P2;SDS_P1;SDS_P2;PMS_P1;PMS_P2;Temp;Humidity;BMP_temperature;BMP_pressure;BME280_temperature;BME280_humidity;BME280_pressure;Samples;Min_cycle;Max_cycle;Signal;HPM_P1;HPM_P2
2021/11/24 00:00:06;;;;;;;13.88;5.88;;;2.40;99.90;;;1.28;100.00;98490.28;5041618;28;20566;-68
2021/11/24 00:02:33;;;;;;;13.15;5.30;;;2.40;99.90;;;1.32;100.00;98492.88;5044821;28;20080;-69
2021/11/24 00:05:01;;;;;;;11.60;4.57;;;2.50;99.90;;;1.33;100.00;98486.09;5051001;28;20185;-68
2021/11/24 00:07:29;;;;;;;18.42;5.20;;;2.50;99.90;;;1.31;100.00;98485.22;5038754;28;20140;-68
2021/11/24 00:09:55;;;;;;;12.35;4.68;;;2.60;99.90;;;1.37;100.00;98490.34;5047087;28;20335;-69
2021/11/24 00:12:22;;;;;;;12.15;5.40;;;2.70;99.90;;;1.38;100.00;98481.84;5048661;28;20509;-68
2021/11/24 00:14:50;;;;;;;15.23;4.45;;;2.60;99.90;;;1.37;100.00;98478.44;5046146;28;20049;-67
2021/11/24 00:17:17;;;;;;;11.88;4.80;;;2.60;99.90;;;1.41;100.00;98479.31;5051018;28;20048;-69
2021/11/24 00:19:44;;;;;;;14.80;5.82;;;2.60;99.90;;;1.46;100.00;98478.53;5047528;28;20069;-69
2021/11/24 00:22:11;;;;;;;10.30;5.30;;;2.60;99.90;;;1.42;100.00;98470.81;5043766;28;20128;-68
2021/11/24 00:24:38;;;;;;;17.88;5.10;;;2.70;99.90;;;1.35;100.00;98462.22;5047485;28;20515;-69
2021/11/24 00:27:05;;;;;;;12.65;4.82;;;2.70;99.90;;;1.43;100.00;98472.50;5048698;28;20044;-68
2021/11/24 00:29:32;;;;;;;14.55;5.57;;;2.70;99.90;;;1.42;100.00;98473.38;5044933;28;20091;-69
2021/11/24 00:31:59;;;;;;;10.52;4.63;;;2.60;99.90;;;1.51;100.00;98470.88;5048201;28;20077;-70
2021/11/24 00:34:27;;;;;;;11.98;5.38;;;2.70;99.90;;;1.49;100.00;98466.59;5047597;28;20057;-68
2021/11/24 00:36:54;;;;;;;10.43;5.05;;;2.80;99.90;;;1.54;100.00;98470.03;5046317;28;20567;-69
2021/11/24 00:39:21;;;;;;;15.73;5.78;;;2.80;99.90;;;1.59;100.00;98463.25;5045299;28;20536;-69
2021/11/24 00:41:48;;;;;;;16.38;5.80;;;2.80;99.90;;;1.58;100.00;98466.69;5048841;28;20063;-70
2021/11/24 00:44:16;;;;;;;12.40;5.13;;;2.80;99.90;;;1.55;100.00;98464.06;5048863;28;20168;-70
2021/11/24 00:46:43;;;;;;;12.55;6.00;;;2.80;99.90;;;1.56;100.00;98458.97;5048528;28;20128;-69
2021/11/24 00:49:11;;;;;;;12.80;6.38;;;2.80;99.90;;;1.62;100.00;98468.38;5049367;28;20081;-70
2021/11/24 00:51:38;;;;;;;13.90;6.38;;;2.70;99.90;;;1.62;100.00;98468.38;5046197;28;20568;-69
2021/11/24 00:54:05;;;;;;;12.32;5.88;;;2.70;99.90;;;1.54;100.00;98468.34;5048361;28;20041;-69
2021/11/24 00:56:32;;;;;;;10.57;4.82;;;2.80;99.90;;;1.60;100.00;98459.88;5045920;28;20045;-69
2021/11/24 00:58:59;;;;;;;13.43;6.13;;;2.80;99.90;;;1.66;100.00;98454.78;5064472;28;20094;-69
2021/11/24 01:01:26;;;;;;;13.18;5.63;;;2.80;99.90;;;1.67;100.00;98448.81;5053720;28;20124;-69
2021/11/24 01:03:54;;;;;;;12.20;5.18;;;2.90;99.90;;;1.70;100.00;98451.41;5045578;28;20041;-69
2021/11/24 01:06:21;;;;;;;14.88;5.10;;;2.90;99.90;;;1.79;100.00;98450.59;5045643;28;20119;-69
2021/11/24 01:08:49;;;;;;;11.20;5.13;;;2.90;99.90;;;1.82;100.00;98451.47;5049283;28;20429;-69
2021/11/24 01:11:18;;;;;;;12.93;5.45;;;3.00;99.90;;;1.74;100.00;98452.28;5039090;28;20148;-69
2021/11/24 01:21:52;;;;;;;17.77;5.45;;;2.90;99.90;;;1.64;100.00;98448.78;5044950;28;20099;-68
2021/11/24 01:24:19;;;;;;;9.02;4.90;;;2.80;99.90;;;1.67;100.00;98442.00;5041307;28;20124;-69
2021/11/24 01:26:47;;;;;;;11.23;5.50;;;2.80;99.90;;;1.68;100.00;98448.81;5033950;28;20089;-69
2021/11/24 01:29:14;;;;;;;14.15;5.07;;;2.90;99.90;;;1.59;100.00;98435.97;5034216;28;20107;-69
2021/11/24 01:31:40;;;;;;;12.27;5.40;;;2.90;99.90;;;1.73;100.00;98438.59;5037734;28;20069;-70
2021/11/24 01:34:07;;;;;;;11.95;5.75;;;2.90;99.90;;;1.73;100.00;98438.59;5039296;28;20132;-70
2021/11/24 01:36:35;;;;;;;12.75;5.70;;;2.90;99.90;;;1.69;100.00;98439.47;5049183;28;20530;-69
2021/11/24 01:39:02;;;;;;;14.23;4.32;;;2.80;99.90;;;1.68;100.00;98435.16;5049209;28;20156;-69
2021/11/24 01:41:30;;;;;;;9.48;4.50;;;2.90;99.90;;;1.66;100.00;98432.59;5048328;28;20087;-69
2021/11/24 01:43:57;;;;;;;9.50;4.72;;;2.90;99.90;;;1.68;100.00;98435.16;5052770;28;20056;-68
2021/11/24 01:46:28;;;;;;;15.75;5.18;;;2.90;99.90;;;1.67;100.00;98442.00;5036674;28;20123;-70
2021/11/24 01:53:46;;;;;;;10.98;4.90;;;2.90;99.90;;;1.71;100.00;98422.41;5044954;28;20095;-69
2021/11/24 01:56:41;;;;;;;9.23;4.85;;;2.90;99.90;;;1.79;100.00;98427.56;5045695;28;20056;-69
2021/11/24 01:59:13;;;;;;;12.98;4.00;;;2.90;99.90;;;1.93;100.00;98425.09;5032919;28;20551;-69
2021/11/24 02:01:43;;;;;;;9.63;3.95;;;3.00;99.90;;;1.89;100.00;98408.84;5059548;28;20144;-69
2021/11/24 02:04:14;;;;;;;11.18;5.18;;;3.00;99.90;;;1.84;100.00;98405.41;5052014;28;20451;-69
2021/11/24 02:06:42;;;;;;;10.98;4.72;;;3.00;99.90;;;1.86;100.00;98401.16;5045670;28;20479;-68
2021/11/24 02:09:11;;;;;;;11.80;5.30;;;3.00;99.90;;;1.77;100.00;98404.50;5054380;28;20124;-70
2021/11/24 02:11:41;;;;;;;10.73;5.10;;;2.90;99.90;;;1.77;100.00;98401.94;5041563;28;20113;-70
2021/11/24 02:14:11;;;;;;;9.85;4.40;;;2.90;99.90;;;1.66;100.00;98399.31;5059961;28;20085;-69
2021/11/24 02:16:48;;;;;;;8.43;3.92;;;2.90;99.90;;;1.81;100.00;98400.28;5050601;28;20095;-70
2021/11/24 02:19:19;;;;;;;16.27;5.38;;;2.80;99.90;;;1.66;100.00;98390.78;5059563;28;20373;-69
2021/11/24 02:21:52;;;;;;;9.55;4.28;;;2.80;99.90;;;1.71;100.00;98394.25;5035086;28;20469;-69
2021/11/24 02:24:28;;;;;;;16.92;5.47;;;2.80;99.90;;;1.68;100.00;98392.50;5044994;28;20479;-70
2021/11/24 02:26:55;;;;;;;12.07;4.60;;;2.80;99.90;;;1.65;100.00;98382.28;5035222;28;20083;-70
2021/11/24 02:29:23;;;;;;;15.23;5.90;;;2.80;99.90;;;1.61;100.00;98385.66;5041502;28;20149;-69
2021/11/24 02:31:54;;;;;;;18.00;5.78;;;2.80;99.90;;;1.60;100.00;98383.09;5048998;28;20090;-68
2021/11/24 02:34:21;;;;;;;14.45;5.88;;;2.80;99.90;;;1.58;100.00;98384.78;5050408;28;20049;-69
2021/11/24 02:36:48;;;;;;;10.05;5.45;;;2.80;99.90;;;1.62;100.00;98377.16;5036797;28;20124;-68
2021/11/24 02:39:16;;;;;;;11.10;5.05;;;2.80;99.90;;;1.68;100.00;98383.97;5041862;28;20167;-69
2021/11/24 02:41:43;;;;;;;12.02;4.88;;;2.80;99.90;;;1.74;100.00;98385.75;5046223;28;20131;-69
2021/11/24 02:44:19;;;;;;;14.02;5.82;;;2.80;99.90;;;1.75;100.00;98385.72;5061345;28;20087;-68
2021/11/24 02:46:47;;;;;;;14.60;6.18;;;2.90;99.90;;;1.78;100.00;98387.44;5055526;28;20084;-68
2021/11/24 02:49:15;;;;;;;8.20;4.93;;;2.90;99.90;;;1.81;100.00;98387.47;5059442;28;20535;-68
2021/11/24 02:51:42;;;;;;;11.02;4.80;;;3.00;99.90;;;1.85;100.00;98395.19;5065371;28;20076;-69
2021/11/24 02:54:10;;;;;;;10.25;4.15;;;3.00;99.90;;;1.94;100.00;98388.38;5034621;28;20136;-69
2021/11/24 02:56:41;;;;;;;9.20;4.88;;;3.10;99.90;;;1.89;100.00;98393.47;5067626;28;20062;-69
2021/11/24 02:59:11;;;;;;;10.40;6.00;;;3.10;99.90;;;1.91;100.00;98385.81;5032695;28;20136;-69
2021/11/24 03:01:39;;;;;;;14.25;4.85;;;3.10;99.90;;;1.96;100.00;98387.56;5045077;28;20083;-69
2021/11/24 03:04:08;;;;;;;10.07;5.70;;;3.10;99.90;;;1.91;100.00;98383.25;5063996;28;20056;-69
2021/11/24 03:06:36;;;;;;;12.07;6.63;;;3.10;99.90;;;1.87;100.00;98383.25;5047190;28;20053;-69
2021/11/24 03:09:05;;;;;;;12.65;5.35;;;3.10;99.90;;;1.97;100.00;98381.59;5042024;28;20132;-68
2021/11/24 03:11:32;;;;;;;13.95;5.82;;;3.10;99.90;;;1.89;100.00;98378.13;5055808;28;20068;-69
2021/11/24 03:13:59;;;;;;;11.02;4.72;;;3.10;99.90;;;1.99;100.00;98368.78;5051162;28;20045;-68
2021/11/24 03:16:26;;;;;;;13.63;6.07;;;3.10;99.90;;;2.00;100.00;98370.50;5053763;28;20060;-68
2021/11/24 03:18:53;;;;;;;13.73;6.13;;;3.10;99.90;;;2.07;100.00;98369.66;5049610;28;20041;-69
2021/11/24 03:21:20;;;;;;;10.73;5.43;;;3.10;99.90;;;1.91;100.00;98366.19;5034832;28;20068;-69
2021/11/24 03:23:47;;;;;;;13.90;6.05;;;3.10;99.90;;;1.99;100.00;98367.09;5050973;28;20432;-69
2021/11/24 03:26:15;;;;;;;13.70;5.20;;;3.10;99.90;;;1.93;100.00;98369.59;5038695;28;20167;-69
2021/11/24 03:28:42;;;;;;;12.18;6.38;;;3.10;99.90;;;1.92;100.00;98364.50;5052030;28;20095;-69
2021/11/24 03:31:10;;;;;;;12.48;5.57;;;3.20;99.90;;;2.03;100.00;98360.25;5056632;28;20535;-70
2021/11/24 03:33:37;;;;;;;13.07;6.13;;;3.10;99.90;;;2.03;100.00;98356.00;5045005;28;20057;-70
2021/11/24 03:36:05;;;;;;;9.90;5.00;;;3.20;99.90;;;1.96;100.00;98351.72;5047498;28;20450;-69
2021/11/24 03:38:32;;;;;;;9.70;5.22;;;3.20;99.90;;;2.09;100.00;98348.31;5033364;28;20120;-69
2021/11/24 03:40:59;;;;;;;14.93;6.22;;;3.20;99.90;;;2.13;100.00;98348.38;5047330;28;20518;-69
2021/11/24 03:43:26;;;;;;;12.13;5.68;;;3.20;99.90;;;2.14;100.00;98334.69;5040649;28;20124;-69
2021/11/24 03:45:54;;;;;;;11.68;5.53;;;3.30;99.90;;;2.07;100.00;98333.81;5055566;28;20567;-70
2021/11/24 03:48:21;;;;;;;12.52;5.95;;;3.30;99.90;;;2.07;100.00;98337.22;5038798;28;20466;-69
2021/11/24 03:50:48;;;;;;;11.18;6.38;;;3.20;99.90;;;2.04;100.00;98332.09;5037611;28;20128;-70
2021/11/24 03:53:15;;;;;;;12.57;6.60;;;3.20;99.90;;;2.02;100.00;98336.34;5050630;28;20049;-69
2021/11/24 03:55:42;;;;;;;11.40;5.57;;;3.20;99.90;;;2.11;100.00;98335.53;5039114;28;20527;-69
2021/11/24 03:58:09;;;;;;;13.23;5.63;;;3.20;99.90;;;2.04;100.00;98332.09;5049176;28;20424;-69
2021/11/24 04:00:37;;;;;;;12.45;6.50;;;3.20;99.90;;;2.18;100.00;98332.16;5052627;28;20083;-68
2021/11/24 04:03:05;;;;;;;10.85;4.53;;;3.20;99.90;;;2.19;100.00;98317.63;5039823;28;20059;-70
2021/11/24 04:05:32;;;;;;;11.73;5.03;;;3.30;99.90;;;2.09;100.00;98317.59;5060089;28;20040;-70
2021/11/24 04:08:00;;;;;;;11.40;5.60;;;3.30;99.90;;;2.11;100.00;98311.66;5056870;28;20128;-69
2021/11/24 04:10:27;;;;;;;17.05;5.15;;;3.30;99.90;;;2.12;100.00;98308.22;5064937;28;20086;-70
2021/11/24 04:12:54;;;;;;;13.50;5.93;;;3.20;99.90;;;2.19;100.00;98320.19;5031438;28;20053;-68
2021/11/24 04:15:21;;;;;;;10.48;4.32;;;3.20;99.90;;;2.25;100.00;98310.81;5048764;28;20509;-68
2021/11/24 04:17:49;;;;;;;9.45;4.95;;;3.20;99.90;;;2.08;100.00;98315.06;5050338;28;20488;-69
2021/11/24 04:20:19;;;;;;;10.57;4.55;;;3.30;99.90;;;2.04;100.00;98314.19;5049779;28;20051;-69
2021/11/24 04:22:47;;;;;;;10.02;4.70;;;3.30;99.90;;;2.23;100.00;98314.22;5048806;28;20124;-70
2021/11/24 04:25:14;;;;;;;10.18;5.00;;;3.30;99.90;;;2.22;100.00;98312.53;5033797;28;20076;-69
2021/11/24 04:27:42;;;;;;;13.77;4.75;;;3.30;99.90;;;2.17;100.00;98306.56;5034312;28;20100;-69
2021/11/24 04:30:12;;;;;;;12.07;5.63;;;3.30;99.90;;;2.20;100.00;98303.97;5034659;28;20077;-69
2021/11/24 04:32:39;;;;;;;11.50;5.32;;;3.30;99.90;;;2.18;100.00;98303.13;5047472;28;20072;-70
2021/11/24 04:35:08;;;;;;;15.88;5.68;;;3.40;99.90;;;2.16;100.00;98308.22;5049627;28;20398;-69
2021/11/24 04:37:35;;;;;;;15.10;5.90;;;3.40;99.90;;;2.25;100.00;98298.00;5053265;28;20080;-69
2021/11/24 04:40:05;;;;;;;11.73;4.70;;;3.30;99.90;;;2.08;100.00;98297.97;5038884;28;20080;-69
2021/11/24 04:42:32;;;;;;;9.25;5.20;;;3.30;99.90;;;2.19;100.00;98292.88;5039944;28;20068;-68
2021/11/24 04:44:59;;;;;;;21.10;6.22;;;3.30;99.90;;;2.21;100.00;98287.75;5046298;28;20668;-69
2021/11/24 04:47:26;;;;;;;11.68;4.82;;;3.40;99.90;;;2.21;100.00;98291.19;5029885;28;20104;-68
2021/11/24 04:49:53;;;;;;;9.13;4.40;;;3.40;99.90;;;2.19;100.00;98286.88;5037432;28;20453;-69
2021/11/24 04:52:20;;;;;;;10.07;4.95;;;3.40;99.90;;;2.19;100.00;98282.66;5049417;28;20083;-69
2021/11/24 04:54:47;;;;;;;10.50;5.05;;;3.40;99.90;;;2.22;100.00;98284.34;5039552;28;20132;-69
2021/11/24 04:57:14;;;;;;;12.23;5.40;;;3.40;99.90;;;2.27;100.00;98285.22;5038098;28;20144;-68
2021/11/24 04:59:43;;;;;;;11.07;5.10;;;3.40;99.90;;;2.27;100.00;98280.09;5041645;28;20132;-70
2021/11/24 05:02:10;;;;;;;10.02;5.22;;;3.40;99.90;;;2.26;100.00;98279.25;5044451;28;20141;-69
2021/11/24 05:04:38;;;;;;;15.18;6.10;;;3.40;99.90;;;2.25;100.00;98279.22;5053568;28;20127;-70
2021/11/24 05:07:05;;;;;;;14.57;5.63;;;3.40;99.90;;;2.20;100.00;98276.66;5047803;28;20461;-68
2021/11/24 05:09:36;;;;;;;12.73;5.40;;;3.40;99.90;;;2.27;100.00;98274.97;5052048;28;20125;-69
2021/11/24 05:12:04;;;;;;;15.88;6.80;;;3.40;99.90;;;2.29;100.00;98275.81;5057006;28;20109;-69
2021/11/24 05:14:36;;;;;;;12.40;5.38;;;3.40;99.90;;;2.29;100.00;98271.53;5047855;28;20099;-70
2021/11/24 05:17:05;;;;;;;12.15;5.30;;;3.40;99.90;;;2.36;100.00;98274.97;5044442;28;20148;-69
2021/11/24 05:19:35;;;;;;;13.20;5.93;;;3.40;99.90;;;2.19;100.00;98268.97;5058031;28;20664;-70
2021/11/24 05:22:04;;;;;;;13.52;5.63;;;3.40;99.90;;;2.16;100.00;98272.38;5056534;28;20072;-69
2021/11/24 05:24:32;;;;;;;12.30;6.03;;;3.30;99.90;;;2.24;100.00;98264.72;5053785;28;20511;-69
2021/11/24 05:26:59;;;;;;;10.45;5.47;;;3.40;99.90;;;2.20;100.00;98261.28;5036725;28;20506;-69
2021/11/24 05:29:26;;;;;;;12.57;5.57;;;3.40;99.90;;;2.22;100.00;98266.44;5038341;28;20044;-69
2021/11/24 05:31:53;;;;;;;16.67;6.70;;;3.40;99.90;;;2.19;100.00;98264.72;5060092;28;20054;-69
2021/11/24 05:34:20;;;;;;;14.43;6.47;;;3.30;99.90;;;2.18;100.00;98263.00;5043394;28;20156;-70
2021/11/24 05:36:47;;;;;;;10.98;6.15;;;3.30;99.90;;;2.22;100.00;98262.16;5051990;28;20059;-69
2021/11/24 05:39:14;;;;;;;14.27;6.00;;;3.40;99.90;;;2.31;100.00;98263.88;5036994;28;20076;-68
2021/11/24 05:41:42;;;;;;;13.98;7.03;;;3.30;99.90;;;2.16;100.00;98266.41;5036597;28;20427;-69
2021/11/24 05:44:23;;;;;;;13.80;6.43;;;3.40;99.90;;;2.29;100.00;98258.75;5043856;28;20140;-69
2021/11/24 05:46:59;;;;;;;11.10;5.75;;;3.40;99.90;;;2.33;100.00;98259.63;5057618;28;20131;-69
2021/11/24 05:49:28;;;;;;;11.98;5.68;;;3.40;99.90;;;2.24;100.00;98254.47;5055239;28;20131;-68
2021/11/24 05:51:57;;;;;;;11.35;6.40;;;3.40;99.90;;;2.21;100.00;98263.00;5046968;28;20099;-69
2021/11/24 05:54:24;;;;;;;14.98;6.00;;;3.40;99.90;;;2.15;100.00;98260.44;5043106;28;20084;-68
2021/11/24 05:56:52;;;;;;;11.63;5.90;;;3.40;99.90;;;2.14;100.00;98251.03;5053935;28;20449;-69
2021/11/24 05:59:19;;;;;;;14.20;5.30;;;3.40;99.90;;;2.25;100.00;98251.91;5047546;28;20124;-69
2021/11/24 06:01:47;;;;;;;16.13;6.03;;;3.40;99.90;;;2.31;100.00;98245.94;5047504;28;20171;-69
2021/11/24 06:04:14;;;;;;;12.85;6.35;;;3.40;99.90;;;2.26;100.00;98248.50;5035059;28;20049;-70
2021/11/24 06:06:42;;;;;;;12.85;6.13;;;3.40;99.90;;;2.22;100.00;98238.25;5042533;28;20156;-70
2021/11/24 06:09:08;;;;;;;10.13;5.80;;;3.50;99.90;;;2.19;100.00;98244.22;5045558;28;20052;-69
2021/11/24 06:11:37;;;;;;;9.77;5.80;;;3.40;99.90;;;2.27;100.00;98241.66;5043422;28;20132;-69
2021/11/24 06:14:04;;;;;;;10.00;5.32;;;3.50;99.90;;;2.29;100.00;98238.25;5047428;28;20495;-69
2021/11/24 06:16:31;;;;;;;11.65;5.70;;;3.40;99.90;;;2.25;100.00;98239.09;5048289;28;20080;-68
2021/11/24 06:18:58;;;;;;;12.52;5.40;;;3.50;99.90;;;2.33;100.00;98233.13;5047239;28;20107;-68
2021/11/24 06:21:25;;;;;;;8.30;3.97;;;3.40;99.90;;;2.23;100.00;98228.00;5042406;28;20087;-69
2021/11/24 06:23:52;;;;;;;10.18;4.50;;;3.40;99.90;;;2.27;100.00;98227.16;5072350;28;20048;-68
2021/11/24 06:26:21;;;;;;;6.40;4.00;;;3.40;99.90;;;2.17;100.00;98222.88;5033318;28;20122;-69
2021/11/24 06:28:49;;;;;;;6.22;3.25;;;3.40;99.90;;;2.36;100.00;98225.44;5050968;28;20163;-69
2021/11/24 06:31:16;;;;;;;9.32;3.60;;;3.50;99.90;;;2.35;100.00;98221.16;5037578;28;20128;-69
2021/11/24 06:33:44;;;;;;;7.82;3.95;;;3.40;99.90;;;2.36;100.00;98220.34;5035148;28;20133;-69
2021/11/24 06:36:11;;;;;;;6.93;3.55;;;3.50;99.90;;;2.50;100.00;98228.88;5047347;28;20139;-68
2021/11/24 06:38:38;;;;;;;11.35;4.40;;;3.50;99.90;;;2.52;100.00;98227.16;5044652;28;20132;-70
2021/11/24 06:41:05;;;;;;;7.88;3.78;;;3.50;99.90;;;2.61;100.00;98228.88;5048288;28;20532;-68
2021/11/24 06:43:32;;;;;;;8.40;3.90;;;3.60;99.90;;;2.49;100.00;98227.16;5051805;28;20072;-69
2021/11/24 06:45:59;;;;;;;7.72;3.80;;;3.60;99.90;;;2.46;100.00;98227.16;5054721;28;20041;-68
2021/11/24 06:48:26;;;;;;;6.40;3.22;;;3.70;99.90;;;2.48;100.00;98233.97;5063554;28;20124;-69
2021/11/24 06:50:53;;;;;;;9.20;4.07;;;3.70;99.90;;;2.45;100.00;98228.88;5046405;28;20073;-69
2021/11/24 06:53:21;;;;;;;5.68;3.45;;;3.60;99.90;;;2.47;100.00;98229.72;5040401;28;20424;-69
2021/11/24 06:55:48;;;;;;;11.25;5.10;;;3.60;99.90;;;2.51;100.00;98239.13;5031771;28;20104;-68
2021/11/24 06:58:15;;;;;;;7.30;3.80;;;3.60;99.90;;;2.54;100.00;98230.56;5042684;28;20159;-70
2021/11/24 07:00:42;;;;;;;7.53;4.25;;;3.60;99.90;;;2.64;100.00;98233.97;5042031;28;20111;-70
2021/11/24 07:03:10;;;;;;;13.20;3.72;;;3.60;99.90;;;2.51;100.00;98226.31;5052074;28;20041;-68
2021/11/24 07:05:38;;;;;;;8.05;3.88;;;3.60;99.90;;;2.40;100.00;98228.00;5048501;28;20386;-70
2021/11/24 07:08:05;;;;;;;9.85;3.67;;;3.60;99.90;;;2.45;100.00;98228.88;5045425;28;20195;-69
2021/11/24 07:10:33;;;;;;;6.63;2.80;;;3.60;99.90;;;2.58;100.00;98231.41;5041858;28;20088;-69
2021/11/24 07:13:00;;;;;;;6.57;2.97;;;3.60;99.90;;;2.61;100.00;98232.28;5050429;28;20131;-68
2021/11/24 07:15:27;;;;;;;6.53;2.85;;;3.70;99.90;;;2.52;100.00;98234.84;5039437;28;20588;-69
2021/11/24 07:17:54;;;;;;;7.35;3.20;;;3.70;99.90;;;2.72;100.00;98233.13;5055407;28;20131;-69
2021/11/24 07:20:21;;;;;;;10.68;3.05;;;3.70;99.90;;;2.65;100.00;98222.91;5048668;28;20120;-69
2021/11/24 07:22:48;;;;;;;7.32;3.05;;;3.80;99.90;;;2.55;100.00;98227.16;5054335;28;20076;-69
2021/11/24 07:25:16;;;;;;;7.97;2.38;;;3.70;99.90;;;2.58;100.00;98222.03;5043361;28;20046;-69
2021/11/24 07:27:45;;;;;;;7.10;2.78;;;3.70;99.90;;;2.63;100.00;98220.31;5038099;28;20502;-68
2021/11/24 07:30:19;;;;;;;5.50;2.00;;;3.80;99.90;;;2.84;100.00;98214.31;5047148;28;20080;-69
2021/11/24 07:32:46;;;;;;;3.78;2.20;;;3.80;99.90;;;2.78;100.00;98226.28;5048062;28;20367;-70
2021/11/24 07:35:13;;;;;;;5.85;2.78;;;3.90;99.90;;;2.69;100.00;98220.31;5051509;28;20048;-70
2021/11/24 07:37:41;;;;;;;6.75;2.75;;;3.80;99.90;;;2.69;100.00;98222.88;5048676;28;20107;-69
2021/11/24 07:40:10;;;;;;;5.70;2.42;;;3.80;99.90;;;2.75;100.00;98221.16;5044727;28;20512;-70
2021/11/24 07:42:39;;;;;;;4.45;2.30;;;3.90;99.90;;;2.69;100.00;98225.44;5048636;28;20139;-69
2021/11/24 07:45:07;;;;;;;4.07;2.13;;;3.90;99.90;;;2.56;100.00;98217.78;5047179;28;20116;-69
2021/11/24 07:47:35;;;;;;;6.20;2.42;;;3.80;99.90;;;2.62;100.00;98217.75;5055124;28;20419;-70
2021/11/24 07:50:03;;;;;;;7.72;2.60;;;3.90;99.90;;;2.63;100.00;98211.78;5047225;28;20483;-70
2021/11/24 07:52:29;;;;;;;5.00;2.22;;;3.90;99.90;;;2.56;100.00;98202.41;5047421;28;20536;-70
2021/11/24 07:54:56;;;;;;;8.30;2.72;;;3.80;99.90;;;2.57;100.00;98202.38;5049214;28;20467;-69
2021/11/24 07:57:23;;;;;;;4.25;2.22;;;3.80;99.90;;;2.53;100.00;98208.34;5043236;28;20136;-69
2021/11/24 07:59:50;;;;;;;5.80;1.80;;;3.80;99.90;;;2.50;100.00;98198.97;5037840;28;20175;-69
2021/11/24 08:02:17;;;;;;;4.15;1.85;;;3.70;99.90;;;2.51;100.00;98199.84;5040430;28;20076;-69
2021/11/24 08:04:45;;;;;;;4.43;1.60;;;3.70;99.90;;;2.53;100.00;98192.97;5039047;28;20084;-69
2021/11/24 08:07:12;;;;;;;4.97;2.05;;;3.70;99.90;;;2.66;100.00;98202.38;5036919;28;20087;-69
2021/11/24 08:09:39;;;;;;;4.82;1.83;;;3.80;99.90;;;2.77;100.00;98199.78;5053118;28;20156;-68
2021/11/24 08:12:26;;;;;;;4.93;1.85;;;3.90;99.90;;;2.82;100.00;98198.06;5044672;28;20072;-69
2021/11/24 08:14:52;;;;;;;3.50;1.50;;;4.00;99.90;;;2.92;100.00;98198.94;5032019;28;20145;-69
2021/11/24 08:17:19;;;;;;;3.03;1.25;;;4.00;99.90;;;3.03;100.00;98188.63;5040762;28;20164;-69
2021/11/24 08:19:46;;;;;;;3.78;1.45;;;4.20;99.90;;;2.88;100.00;98187.81;5043893;28;20047;-69
2021/11/24 08:22:13;;;;;;;2.63;0.93;;;4.10;99.90;;;2.89;100.00;98181.81;5041037;28;20320;-69
2021/11/24 08:24:41;;;;;;;3.67;1.02;;;4.20;99.90;;;2.90;100.00;98191.22;5037582;28;20053;-69
2021/11/24 08:27:08;;;;;;;2.92;1.10;;;4.10;99.90;;;2.94;100.00;98194.63;5038997;28;20137;-67
2021/11/24 08:29:35;;;;;;;1.70;1.00;;;4.20;99.90;;;2.99;100.00;98184.34;5042710;28;20124;-70
2021/11/24 08:32:03;;;;;;;3.42;1.05;;;4.20;99.90;;;3.03;100.00;98183.50;5035969;28;20135;-69
2021/11/24 08:34:30;;;;;;;2.28;0.93;;;4.30;99.90;;;3.04;100.00;98180.94;5038338;28;20083;-68
2021/11/24 08:36:56;;;;;;;1.95;0.90;;;4.40;99.90;;;3.06;100.00;98173.25;5035540;28;20553;-70
2021/11/24 08:39:25;;;;;;;3.08;1.10;;;4.30;99.90;;;3.05;100.00;98166.41;5032078;28;20467;-69
2021/11/24 08:41:52;;;;;;;1.90;1.00;;;4.30;99.90;;;3.02;100.00;98163.84;5046234;28;20106;-68
2021/11/24 08:44:19;;;;;;;3.63;0.90;;;4.30;99.90;;;2.86;100.00;98161.31;5027455;28;20053;-70
2021/11/24 08:46:46;;;;;;;3.50;1.20;;;4.10;99.90;;;2.85;100.00;98153.63;5033712;28;20383;-68
2021/11/24 08:49:13;;;;;;;1.98;1.00;;;4.00;99.90;;;2.93;100.00;98150.19;5034762;28;20485;-69
2021/11/24 08:51:40;;;;;;;2.20;0.88;;;4.20;99.90;;;2.96;100.00;98149.31;5040428;28;20132;-69
2021/11/24 08:54:10;;;;;;;2.22;1.00;;;4.20;99.90;;;3.10;100.00;98147.59;5038741;28;20085;-69
2021/11/24 08:56:39;;;;;;;3.03;1.25;;;4.30;99.90;;;3.17;100.00;98140.72;5032877;28;20136;-70
2021/11/24 08:59:08;;;;;;;4.07;1.25;;;4.40;99.90;;;3.35;100.00;98143.22;5046457;28;20138;-69
2021/11/24 09:01:37;;;;;;;4.53;1.20;;;4.60;99.90;;;3.37;100.00;98140.59;5032580;28;20045;-69
2021/11/24 09:04:05;;;;;;;3.13;1.00;;;4.60;99.90;;;3.51;100.00;98136.28;5031168;28;20140;-69
2021/11/24 09:06:32;;;;;;;3.85;1.00;;;4.70;99.90;;;3.43;100.00;98138.03;5029719;28;20049;-69
2021/11/24 09:09:00;;;;;;;3.38;1.30;;;4.70;99.90;;;3.47;100.00;98137.16;5031360;28;20256;-70
2021/11/24 09:11:27;;;;;;;2.58;0.80;;;4.80;99.90;;;3.56;100.00;98128.56;5027379;28;20077;-69
2021/11/24 09:13:54;;;;;;;1.73;0.85;;;4.80;99.90;;;3.65;100.00;98132.75;5043021;28;20597;-69
2021/11/24 09:16:26;;;;;;;2.63;0.90;;;4.80;99.90;;;3.73;100.00;98131.00;5035311;28;20045;-69
2021/11/24 09:18:53;;;;;;;3.08;1.00;;;5.00;99.90;;;3.72;100.00;98119.88;5051392;28;20045;-69
2021/11/24 09:21:23;;;;;;;2.55;1.13;;;5.00;99.90;;;3.55;100.00;98122.53;5061550;28;20088;-69
2021/11/24 09:23:52;;;;;;;3.10;1.30;;;4.80;99.90;;;3.37;100.00;98122.66;5058053;28;20600;-70
2021/11/24 09:26:26;;;;;;;3.00;1.10;;;4.80;99.90;;;3.50;100.00;98126.84;5037995;28;20121;-70
2021/11/24 09:28:53;;;;;;;2.55;1.40;;;4.70;99.90;;;3.31;100.00;98120.13;5041112;28;20080;-68
2021/11/24 09:31:20;;;;;;;3.70;1.10;;;4.60;99.90;;;3.22;100.00;98110.75;5043038;28;20451;-70
2021/11/24 09:33:47;;;;;;;2.75;1.30;;;4.50;99.90;;;3.19;100.00;98105.63;5037044;28;20200;-68
2021/11/24 09:36:14;;;;;;;2.63;1.15;;;4.50;99.90;;;3.19;100.00;98105.63;5036640;28;20124;-69
2021/11/24 09:38:41;;;;;;;5.05;1.33;;;4.50;99.90;;;3.24;100.00;98097.91;5026404;28;20417;-69
2021/11/24 09:41:11;;;;;;;2.10;1.10;;;4.50;99.90;;;3.45;100.00;98102.09;5036816;28;20047;-68
2021/11/24 09:43:45;;;;;;;4.38;1.92;;;4.60;99.90;;;3.66;100.00;98095.97;5041113;28;20128;-70
2021/11/24 09:46:15;;;;;;;4.30;1.38;;;4.80;99.90;;;3.52;100.00;98089.22;5018200;28;20084;-70
2021/11/24 09:48:45;;;;;;;3.92;1.52;;;4.80;99.90;;;3.62;100.00;98095.13;5035743;28;20091;-70
2021/11/24 09:51:13;;;;;;;4.35;1.60;;;4.90;99.90;;;3.69;100.00;98104.47;5064512;28;20063;-70
2021/11/24 09:53:43;;;;;;;3.17;0.95;;;5.00;99.90;;;4.02;100.00;98096.56;5045135;28;20131;-68
2021/11/24 09:56:12;;;;;;;5.90;1.30;;;5.20;99.90;;;4.07;100.00;98093.09;5034751;28;20363;-69
2021/11/24 09:58:39;;;;;;;4.00;1.30;;;5.40;99.90;;;3.77;100.00;98095.03;5038455;28;20167;-69
2021/11/24 10:01:07;;;;;;;4.25;1.20;;;5.20;99.90;;;3.55;100.00;98094.31;5041119;28;20125;-70
2021/11/24 10:03:34;;;;;;;2.85;1.00;;;5.00;99.90;;;3.58;100.00;98101.16;5043592;28;20109;-68
2021/11/24 10:06:02;;;;;;;5.32;1.40;;;4.80;99.90;;;3.50;100.00;98093.50;5045982;28;20219;-69
2021/11/24 10:08:51;;;;;;;2.63;1.10;;;4.80;99.90;;;3.65;100.00;98079.72;5044101;28;20236;-70
2021/11/24 10:11:18;;;;;;;3.25;1.30;;;4.90;99.90;;;3.71;100.00;98084.78;5043725;28;20076;-70
2021/11/24 10:13:48;;;;;;;4.45;1.30;;;4.90;99.90;;;3.80;100.00;98078.75;5041855;28;20128;-68
2021/11/24 10:16:29;;;;;;;2.30;1.17;;;4.90;99.90;;;3.45;100.00;98079.84;5035721;28;20050;-69
2021/11/24 10:19:03;;;;;;;2.70;1.23;;;4.70;99.90;;;3.29;100.00;98066.25;5037989;28;20056;-69
2021/11/24 10:21:32;;;;;;;2.58;1.33;;;4.70;99.90;;;3.32;100.00;98060.25;5046064;28;20045;-68
2021/11/24 10:24:04;;;;;;;2.85;1.45;;;4.60;99.90;;;3.23;100.00;98055.16;5041171;28;20132;-70
2021/11/24 10:26:39;;;;;;;2.30;1.10;;;4.40;99.90;;;3.35;100.00;98057.66;5035064;28;20463;-69
2021/11/24 10:29:26;;;;;;;2.38;1.20;;;4.50;99.90;;;3.39;100.00;98043.94;5031538;28;20386;-69
2021/11/24 10:32:04;;;;;;;1.90;1.02;;;4.50;99.90;;;3.37;100.00;98040.53;5039651;28;20140;-70
2021/11/24 10:34:36;;;;;;;2.55;1.50;;;4.60;99.90;;;3.25;100.00;98038.91;5044743;28;20053;-70
2021/11/24 10:37:12;;;;;;;3.53;1.35;;;4.50;99.90;;;3.17;100.00;98032.09;5047276;28;20049;-69
2021/11/24 10:40:04;;;;;;;4.15;1.40;;;4.40;99.90;;;3.29;100.00;98032.91;5026583;28;20053;-69